Time;durP1;ratioP1;P1;durP2;ratioP2;P2;SDS_P1;SDS_P2;PMS_P1;PMS_P2;Temp;Humidity;BMP_temperature;BMP_pressure;BME280_temperature;BME280_humidity;BME280_pressure;Samples;Min_cycle;Max_cycle;Signal;HPM_P1;HPM_P2
2023/10/18 00:00:59;;;;;;;26.63;15.67;;;4.90;99.90;;;;;;5084719;28;20439;-61
2023/10/18 00:03:32;;;;;;;25.23;16.00;;;4.90;99.90;;;;;;5087770;28;20442;-62
2023/10/18 00:06:21;;;;;;;29.13;16.27;;;4.90;99.90;;;;;;5083031;28;20196;-61
2023/10/18 00:08:47;;;;;;;29.17;17.07;;;4.80;99.90;;;;;;5080468;28;20431;-62
2023/10/18 00:11:13;;;;;;;29.60;16.40;;;4.90;99.90;;;;;;5084685;28;20995;-61
2023/10/18 00:13:39;;;;;;;27.10;16.03;;;4.90;99.90;;;;;;5087321;28;20227;-61
2023/10/18 00:16:06;;;;;;;28.37;16.63;;;4.90;99.90;;;;;;5084846;28;20417;-61
2023/10/18 00:18:33;;;;;;;31.73;15.27;;;4.90;99.90;;;;;;5084523;28;20679;-61
2023/10/18 00:21:06;;;;;;;29.30;16.63;;;4.90;99.90;;;;;;5084176;28;20427;-61
2023/10/18 00:23:32;;;;;;;24.00;15.07;;;4.90;99.90;;;;;;5084052;28;20463;-61
2023/10/18 00:26:05;;;;;;;26.10;15.93;;;4.90;99.90;;;;;;5084072;28;20521;-62
2023/10/18 00:28:31;;;;;;;24.13;15.03;;;4.80;99.90;;;;;;5083909;28;20447;-60
2023/10/18 00:30:57;;;;;;;29.33;15.60;;;4.80;99.90;;;;;;5083216;28;20422;-62
2023/10/18 00:33:23;;;;;;;25.00;15.10;;;4.80;99.90;;;;;;5077678;28;20427;-61
2023/10/18 00:35:48;;;;;;;26.40;15.50;;;4.80;99.90;;;;;;5084171;28;20625;-62
2023/10/18 00:38:18;;;;;;;26.50;15.70;;;4.80;99.90;;;;;;5087231;28;20193;-62
2023/10/18 00:40:45;;;;;;;22.17;13.90;;;4.70;99.90;;;;;;5081284;28;20648;-62
2023/10/18 00:43:22;;;;;;;;;;;;;;;;;;;;;
2023/10/18 00:45:52;;;;;;;25.67;15.87;;;4.70;99.90;;;;;;5084618;28;20514;-61
2023/10/18 00:48:26;;;;;;;28.63;16.67;;;4.70;99.90;;;;;;5082373;28;20582;-61
2023/10/18 00:50:54;;;;;;;25.00;16.17;;;4.70;99.90;;;;;;5081988;28;20491;-61
2023/10/18 00:53:23;;;;;;;26.63;15.07;;;4.60;99.90;;;;;;5083419;28;20518;-64
2023/10/18 00:55:57;;;;;;;25.03;14.70;;;4.70;99.90;;;;;;5085650;28;20797;-61
2023/10/18 00:58:23;;;;;;;26.20;14.80;;;4.70;99.90;;;;;;5081622;28;20478;-61
2023/10/18 01:00:50;;;;;;;24.53;14.80;;;4.60;99.90;;;;;;5082255;28;20434;-60
2023/10/18 01:03:28;;;;;;;25.53;14.63;;;4.70;99.90;;;;;;5080087;28;20539;-61
2023/10/18 01:05:58;;;;;;;25.77;14.57;;;4.70;99.90;;;;;;5082945;28;20419;-61
2023/10/18 01:08:24;;;;;;;24.67;15.20;;;4.70;99.90;;;;;;5082652;28;20448;-62
2023/10/18 01:10:51;;;;;;;23.93;14.00;;;4.60;99.90;;;;;;5086546;28;20396;-61
2023/10/18 01:13:20;;;;;;;26.80;14.60;;;4.60;99.90;;;;;;5086274;28;20577;-61
2023/10/18 01:15:46;;;;;;;26.33;14.27;;;4.60;99.90;;;;;;5083607;28;20953;-61
2023/10/18 01:18:11;;;;;;;28.60;15.40;;;4.60;99.90;;;;;;5085482;28;20436;-60
2023/10/18 01:20:40;;;;;;;23.90;14.13;;;4.60;99.90;;;;;;5083885;28;20988;-61
2023/10/18 01:23:07;;;;;;;27.87;15.27;;;4.60;99.90;;;;;;5087651;28;20596;-61
2023/10/18 01:25:34;;;;;;;24.67;14.90;;;4.60;99.90;;;;;;5088492;28;20781;-60
2023/10/18 01:28:00;;;;;;;23.00;14.77;;;4.60;99.90;;;;;;5083932;28;20459;-61
2023/10/18 01:30:26;;;;;;;26.70;14.30;;;4.60;99.90;;;;;;5084657;28;20950;-62
2023/10/18 01:32:51;;;;;;;25.00;14.27;;;4.50;99.90;;;;;;5084539;28;20485;-62
2023/10/18 01:35:17;;;;;;;24.83;14.60;;;4.50;99.90;;;;;;5078957;28;21268;-61
2023/10/18 01:37:43;;;;;;;25.57;16.07;;;4.50;99.90;;;;;;5085310;28;20201;-61
2023/10/18 01:40:29;;;;;;;24.70;14.53;;;4.50;99.90;;;;;;5086894;28;20173;-61
2023/10/18 01:42:58;;;;;;;26.80;16.10;;;4.40;99.90;;;;;;5082310;28;20464;-61
2023/10/18 01:45:30;;;;;;;21.23;12.93;;;4.40;99.90;;;;;;5087852;28;21311;-61
2023/10/18 01:47:56;;;;;;;29.03;14.90;;;4.40;99.90;;;;;;5081053;28;20910;-61
2023/10/18 01:50:22;;;;;;;24.80;15.43;;;4.40;99.90;;;;;;5076999;28;20800;-61
2023/10/18 01:52:48;;;;;;;24.50;14.83;;;4.40;99.90;;;;;;5085879;28;20426;-60
2023/10/18 01:55:14;;;;;;;25.80;14.43;;;4.40;99.90;;;;;;5092055;28;20223;-61
2023/10/18 01:57:41;;;;;;;28.63;15.80;;;4.40;99.90;;;;;;5080891;28;20463;-61
2023/10/18 02:00:12;;;;;;;26.63;16.13;;;4.40;99.90;;;;;;5078307;28;20255;-61
2023/10/18 02:02:38;;;;;;;26.07;14.13;;;4.30;99.90;;;;;;5080419;28;20451;-61
2023/10/18 02:05:05;;;;;;;26.83;14.87;;;4.30;99.90;;;;;;5088150;28;20427;-61
2023/10/18 02:07:32;;;;;;;29.93;14.87;;;4.30;99.90;;;;;;5087650;28;20493;-61
2023/10/18 02:09:58;;;;;;;22.67;15.00;;;4.30;99.90;;;;;;5087461;28;20427;-61
2023/10/18 02:12:27;;;;;;;22.20;14.00;;;4.30;99.90;;;;;;5091451;28;20423;-62
2023/10/18 02:14:55;;;;;;;26.50;14.57;;;4.20;99.90;;;;;;5089882;28;20430;-61
2023/10/18 02:17:21;;;;;;;25.00;15.00;;;4.20;99.90;;;;;;5090220;28;21004;-61
2023/10/18 02:19:47;;;;;;;26.03;15.10;;;4.20;99.90;;;;;;5086869;28;20416;-61
2023/10/18 02:22:13;;;;;;;26.20;14.50;;;4.20;99.90;;;;;;5090831;28;20451;-61
2023/10/18 02:24:42;;;;;;;22.63;13.20;;;4.20;99.90;;;;;;5087555;28;20509;-61
2023/10/18 02:27:09;;;;;;;26.50;15.13;;;4.10;99.90;;;;;;5088027;28;20523;-61
2023/10/18 02:29:35;;;;;;;27.83;15.57;;;4.10;99.90;;;;;;5087754;28;20971;-59
2023/10/18 02:32:21;;;;;;;25.90;14.23;;;4.10;99.90;;;;;;5090264;28;20415;-61
2023/10/18 02:34:47;;;;;;;22.33;12.60;;;4.10;99.90;;;;;;5090115;28;20169;-61
2023/10/18 02:37:12;;;;;;;23.80;14.00;;;4.10;99.90;;;;;;5086648;28;20449;-61
2023/10/18 02:39:39;;;;;;;28.43;15.80;;;4.10;99.90;;;;;;5087397;28;20672;-61
2023/10/18 02:42:04;;;;;;;24.00;13.60;;;4.10;99.90;;;;;;5087827;28;20843;-61
2023/10/18 02:44:33;;;;;;;24.73;14.83;;;4.10;99.90;;;;;;5088469;28;20423;-61
2023/10/18 02:47:32;;;;;;;25.17;15.03;;;4.10;99.90;;;;;;5086496;28;20213;-61
2023/10/18 02:49:51;;;;;;;26.40;14.33;;;4.10;99.90;;;;;;5086585;28;20443;-61
2023/10/18 02:52:17;;;;;;;27.10;15.03;;;4.10;99.90;;;;;;5088872;28;20428;-61
2023/10/18 02:54:45;;;;;;;25.13;14.23;;;4.10;99.90;;;;;;5090714;28;20425;-60
2023/10/18 02:57:13;;;;;;;26.27;15.30;;;4.00;99.90;;;;;;5089201;28;20478;-61
2023/10/18 02:59:41;;;;;;;25.70;14.10;;;4.00;99.90;;;;;;5082668;28;20507;-61
2023/10/18 03:02:23;;;;;;;21.90;13.33;;;4.00;99.90;;;;;;5084207;28;20594;-61
2023/10/18 03:04:49;;;;;;;22.10;13.90;;;4.00;99.90;;;;;;5091492;28;20427;-61
2023/10/18 03:07:15;;;;;;;28.13;14.87;;;4.00;99.90;;;;;;5084472;28;20463;-62
2023/10/18 03:09:41;;;;;;;23.70;13.70;;;3.90;99.90;;;;;;5086132;28;20261;-62
2023/10/18 03:12:13;;;;;;;26.57;14.80;;;3.90;99.90;;;;;;5090061;28;20553;-61
2023/10/18 03:14:41;;;;;;;24.03;13.73;;;3.90;99.90;;;;;;5087754;28;20210;-61
2023/10/18 03:17:15;;;;;;;24.67;14.47;;;3.90;99.90;;;;;;5088895;28;20460;-61
2023/10/18 03:19:44;;;;;;;26.53;14.47;;;3.80;99.90;;;;;;5087313;28;20422;-61
2023/10/18 03:22:11;;;;;;;23.87;14.80;;;3.80;99.90;;;;;;5087008;28;21033;-61
2023/10/18 03:24:37;;;;;;;30.63;15.47;;;3.80;99.90;;;;;;5087920;28;20852;-61
2023/10/18 03:27:11;;;;;;;28.10;15.33;;;3.80;99.90;;;;;;5090538;28;20479;-60
2023/10/18 03:29:37;;;;;;;33.73;15.53;;;3.80;99.90;;;;;;5082753;28;20843;-60
2023/10/18 03:32:06;;;;;;;25.80;15.10;;;3.80;99.90;;;;;;5084546;28;20439;-61
2023/10/18 03:34:37;;;;;;;26.70;14.47;;;3.80;99.90;;;;;;5086816;28;20901;-60
2023/10/18 03:37:04;;;;;;;24.13;14.00;;;3.80;99.90;;;;;;5084293;28;20444;-60
2023/10/18 03:39:30;;;;;;;29.93;14.60;;;3.80;99.90;;;;;;5082106;28;20539;-61
2023/10/18 03:41:58;;;;;;;24.00;13.90;;;3.80;99.90;;;;;;5086240;28;21060;-60
2023/10/18 03:44:27;;;;;;;28.83;14.03;;;3.80;99.90;;;;;;5091027;28;20464;-61
2023/10/18 03:47:05;;;;;;;28.00;15.37;;;3.80;99.90;;;;;;5092476;28;20518;-61
2023/10/18 03:49:33;;;;;;;28.80;16.07;;;3.80;99.90;;;;;;5085888;28;20469;-61
2023/10/18 03:52:16;;;;;;;23.80;14.60;;;3.80;99.90;;;;;;5076282;28;20434;-61
2023/10/18 03:54:46;;;;;;;28.27;15.80;;;3.80;99.90;;;;;;5079334;28;20656;-60
2023/10/18 03:57:19;;;;;;;29.17;16.03;;;3.80;99.90;;;;;;5087615;28;20442;-60
2023/10/18 03:59:45;;;;;;;29.17;16.10;;;3.80;99.90;;;;;;5084283;28;20419;-60
2023/10/18 04:02:16;;;;;;;30.30;16.57;;;3.80;99.90;;;;;;5085663;28;20484;-59
2023/10/18 04:04:47;;;;;;;29.17;15.90;;;3.80;99.90;;;;;;5086726;28;20415;-59
2023/10/18 04:07:16;;;;;;;26.20;14.43;;;3.90;99.90;;;;;;5091276;28;20489;-59
2023/10/18 04:10:11;;;;;;;27.93;15.83;;;3.90;99.90;;;;;;5086890;28;20934;-59
2023/10/18 04:12:32;;;;;;;27.87;15.90;;;3.90;99.90;;;;;;5088899;28;20432;-58
2023/10/18 04:14:58;;;;;;;28.53;16.30;;;3.90;99.90;;;;;;5071610;28;20423;-58
2023/10/18 04:20:07;;;;;;;24.83;14.60;;;3.90;99.90;;;;;;5086272;28;20415;-60
2023/10/18 04:22:33;;;;;;;27.80;15.53;;;4.00;99.90;;;;;;5079947;28;20524;-59
2023/10/18 04:24:58;;;;;;;28.67;15.83;;;4.00;99.90;;;;;;5083420;28;20431;-61
2023/10/18 04:27:24;;;;;;;29.20;16.80;;;4.00;99.90;;;;;;5086225;28;20496;-60
2023/10/18 04:29:55;;;;;;;29.70;16.50;;;4.00;99.90;;;;;;5084325;28;20247;-62
2023/10/18 04:32:23;;;;;;;31.23;16.33;;;4.00;99.90;;;;;;5074712;28;20180;-61
2023/10/18 04:34:48;;;;;;;26.60;15.43;;;4.00;99.90;;;;;;5076607;28;20519;-61
2023/10/18 04:37:14;;;;;;;28.10;16.47;;;4.00;99.90;;;;;;5085606;28;20500;-59
2023/10/18 04:39:40;;;;;;;25.60;16.10;;;4.00;99.90;;;;;;5076769;28;20178;-58
2023/10/18 04:42:08;;;;;;;31.37;17.60;;;4.00;99.90;;;;;;5084315;28;20197;-58
2023/10/18 04:44:37;;;;;;;28.77;15.87;;;4.00;99.90;;;;;;5081940;28;20432;-58
2023/10/18 04:47:04;;;;;;;24.30;15.43;;;4.00;99.90;;;;;;5088789;28;20431;-58
2023/10/18 04:49:36;;;;;;;30.87;14.90;;;3.90;99.90;;;;;;5083567;28;20968;-58
2023/10/18 04:52:04;;;;;;;22.70;14.87;;;3.90;99.90;;;;;;5086982;28;20427;-61
2023/10/18 04:54:41;;;;;;;27.33;14.33;;;3.90;99.90;;;;;;5082754;28;20598;-62
2023/10/18 04:57:17;;;;;;;25.60;15.10;;;3.90;99.90;;;;;;5079388;28;20455;-62
2023/10/18 04:59:46;;;;;;;26.23;16.30;;;3.90;99.90;;;;;;5079659;28;20442;-62
2023/10/18 05:02:18;;;;;;;23.00;14.93;;;3.90;99.90;;;;;;5082374;28;20459;-62
2023/10/18 05:04:47;;;;;;;27.20;15.27;;;3.90;99.90;;;;;;5082790;28;20560;-62
2023/10/18 05:12:16;;;;;;;34.23;16.63;;;4.00;99.90;;;;;;5085461;28;20166;-61
2023/10/18 05:14:42;;;;;;;29.93;14.40;;;4.00;99.90;;;;;;5081938;28;20434;-62
2023/10/18 05:17:21;;;;;;;30.37;16.17;;;4.00;99.90;;;;;;5084364;28;20456;-62
2023/10/18 05:19:48;;;;;;;36.40;17.17;;;4.00;99.90;;;;;;5085829;28;20484;-61
2023/10/18 05:22:24;;;;;;;33.00;15.87;;;4.10;99.90;;;;;;5085169;28;20452;-61
2023/10/18 05:25:15;;;;;;;27.80;16.80;;;4.10;99.90;;;;;;5087973;28;20403;-61
2023/10/18 05:28:00;;;;;;;34.17;15.87;;;4.10;99.90;;;;;;5085478;28;20479;-61
2023/10/18 05:30:27;;;;;;;25.10;16.13;;;4.10;99.90;;;;;;5077491;28;20432;-61
2023/10/18 05:35:27;;;;;;;28.23;16.23;;;4.10;99.90;;;;;;5085641;28;21005;-61
2023/10/18 05:38:18;;;;;;;29.33;16.13;;;4.10;99.90;;;;;;5085102;28;20451;-61
2023/10/18 05:40:49;;;;;;;25.90;15.77;;;4.10;99.90;;;;;;5085228;28;20453;-61
2023/10/18 05:43:29;;;;;;;30.20;15.13;;;4.00;99.90;;;;;;5087026;28;20547;-61
2023/10/18 05:45:56;;;;;;;29.87;15.87;;;4.10;99.90;;;;;;5085378;28;20491;-61
2023/10/18 05:48:23;;;;;;;27.43;16.20;;;4.10;99.90;;;;;;5083876;28;20443;-61
2023/10/18 05:50:49;;;;;;;28.43;15.27;;;4.10;99.90;;;;;;5083899;28;20426;-61
2023/10/18 05:53:24;;;;;;;28.97;15.60;;;4.10;99.90;;;;;;5086795;28;20489;-61
2023/10/18 05:55:53;;;;;;;29.13;14.57;;;4.10;99.90;;;;;;5085474;28;20449;-61
2023/10/18 05:58:25;;;;;;;24.00;15.27;;;4.10;99.90;;;;;;5081212;28;20447;-61
2023/10/18 06:01:02;;;;;;;24.70;14.30;;;4.00;99.90;;;;;;5082156;28;20460;-62
2023/10/18 06:03:39;;;;;;;25.87;14.90;;;4.00;99.90;;;;;;5080709;28;20491;-62
2023/10/18 06:06:08;;;;;;;26.53;15.40;;;4.00;99.90;;;;;;5080347;28;20925;-61
2023/10/18 06:08:34;;;;;;;27.77;17.03;;;4.00;99.90;;;;;;5080110;28;20451;-60
2023/10/18 06:11:06;;;;;;;27.70;14.77;;;4.00;99.90;;;;;;5081879;28;20494;-61
2023/10/18 06:13:35;;;;;;;25.07;15.83;;;4.10;99.90;;;;;;5085667;28;20477;-60
2023/10/18 06:16:18;;;;;;;30.33;16.30;;;4.10;99.90;;;;;;5079956;28;20436;-61
2023/10/18 06:18:46;;;;;;;24.93;14.63;;;4.00;99.90;;;;;;5091063;28;20451;-61
2023/10/18 06:21:18;;;;;;;27.70;16.03;;;4.10;99.90;;;;;;5087051;28;20423;-60
2023/10/18 06:23:59;;;;;;;23.50;14.67;;;4.10;99.90;;;;;;5082156;28;20436;-62
2023/10/18 06:26:28;;;;;;;26.17;15.53;;;4.10;99.90;;;;;;5076967;28;20423;-61
2023/10/18 06:29:11;;;;;;;27.97;16.00;;;4.20;99.90;;;;;;5085642;28;20421;-62
2023/10/18 06:31:42;;;;;;;25.70;15.43;;;4.30;99.90;;;;;;5082449;28;20431;-61
2023/10/18 06:34:11;;;;;;;24.10;14.53;;;4.30;99.90;;;;;;5079940;28;20439;-62
2023/10/18 06:36:39;;;;;;;34.50;16.10;;;4.40;99.90;;;;;;5084908;28;20428;-62
2023/10/18 06:39:05;;;;;;;27.37;15.57;;;4.40;99.90;;;;;;5083505;28;20507;-61
2023/10/18 06:41:31;;;;;;;26.80;15.83;;;4.50;99.90;;;;;;5080929;28;20413;-61
2023/10/18 06:43:59;;;;;;;26.43;15.20;;;4.60;99.90;;;;;;5085433;28;20460;-61
2023/10/18 06:46:26;;;;;;;27.67;15.20;;;4.60;99.90;;;;;;5090091;28;20165;-61
2023/10/18 06:48:54;;;;;;;29.20;15.23;;;4.60;99.90;;;;;;5079812;28;20458;-61
2023/10/18 06:51:30;;;;;;;22.80;13.97;;;4.70;99.90;;;;;;5085424;28;20451;-62
2023/10/18 06:53:58;;;;;;;22.27;13.80;;;4.80;99.90;;;;;;5089453;28;20426;-61
2023/10/18 06:56:26;;;;;;;24.63;14.47;;;4.90;99.90;;;;;;5079836;28;20446;-61
2023/10/18 06:58:53;;;;;;;23.70;14.73;;;4.90;99.90;;;;;;5089388;28;20419;-61
2023/10/18 07:01:30;;;;;;;24.00;15.50;;;5.00;99.90;;;;;;5083323;28;20446;-62
2023/10/18 07:03:56;;;;;;;26.43;15.23;;;5.00;99.90;;;;;;5083750;28;20519;-62
2023/10/18 07:06:24;;;;;;;23.73;14.17;;;5.10;99.90;;;;;;5088299;28;20522;-61
2023/10/18 07:08:51;;;;;;;24.17;15.53;;;5.10;99.90;;;;;;5089044;28;20630;-62
2023/10/18 07:11:17;;;;;;;25.57;14.50;;;5.20;99.90;;;;;;5087074;28;20420;-62
2023/10/18 07:13:48;;;;;;;24.53;15.13;;;5.20;99.90;;;;;;5083470;28;20438;-62
2023/10/18 07:21:42;;;;;;;25.43;14.63;;;5.40;99.90;;;;;;5086517;28;20517;-62
2023/10/18 07:24:11;;;;;;;25.93;14.57;;;5.50;99.90;;;;;;5089274;28;20481;-62
2023/10/18 07:26:39;;;;;;;22.60;14.60;;;5.50;99.90;;;;;;5089536;28;20446;-62
2023/10/18 07:29:08;;;;;;;23.90;13.90;;;5.50;99.90;;;;;;5088058;28;20428;-62
2023/10/18 07:31:41;;;;;;;25.53;17.07;;;5.60;99.90;;;;;;5087736;28;20838;-63
2023/10/18 07:34:11;;;;;;;26.63;15.87;;;5.60;99.90;;;;;;5085896;28;20431;-62
2023/10/18 07:36:44;;;;;;;22.37;13.70;;;5.70;99.90;;;;;;5080806;28;20582;-62
2023/10/18 07:39:16;;;;;;;28.80;15.33;;;5.80;99.90;;;;;;5083478;28;20918;-61
2023/10/18 07:41:46;;;;;;;21.93;15.23;;;5.80;99.90;;;;;;5088804;28;20494;-62
2023/10/18 07:44:11;;;;;;;23.83;15.27;;;5.90;99.90;;;;;;5088622;28;20404;-62
2023/10/18 07:46:41;;;;;;;20.23;13.40;;;6.00;99.90;;;;;;5083763;28;20480;-62
2023/10/18 07:49:15;;;;;;;22.20;14.50;;;6.00;99.90;;;;;;5088552;28;20174;-62
2023/10/18 07:51:48;;;;;;;22.00;14.23;;;6.10;99.90;;;;;;5084197;28;20423;-62
2023/10/18 07:54:20;;;;;;;23.20;13.53;;;6.20;99.90;;;;;;5088533;28;20466;-62
2023/10/18 07:56:54;;;;;;;25.57;15.37;;;6.30;99.90;;;;;;5077386;28;20435;-62
2023/10/18 07:59:28;;;;;;;23.70;16.00;;;6.30;99.90;;;;;;5081799;28;20967;-62
2023/10/18 08:04:36;;;;;;;23.83;14.33;;;6.50;99.90;;;;;;5086993;28;20427;-62
2023/10/18 08:07:03;;;;;;;20.90;14.50;;;6.50;99.90;;;;;;5084234;28;21063;-62
2023/10/18 08:09:28;;;;;;;25.43;14.83;;;6.60;99.90;;;;;;5088421;28;20420;-62
2023/10/18 08:11:55;;;;;;;29.57;14.67;;;6.60;99.90;;;;;;5082770;28;20580;-62
2023/10/18 08:14:26;;;;;;;32.03;16.40;;;6.60;99.90;;;;;;5086957;28;20165;-62
2023/10/18 08:16:55;;;;;;;23.97;14.77;;;6.60;99.90;;;;;;5084894;28;21009;-62
2023/10/18 08:19:25;;;;;;;23.07;14.47;;;6.70;99.90;;;;;;5080855;28;20432;-62
2023/10/18 08:24:35;;;;;;;25.80;15.97;;;6.80;99.90;;;;;;5085420;28;20391;-61
2023/10/18 08:27:10;;;;;;;25.20;13.53;;;6.80;99.90;;;;;;5084679;28;20457;-62
2023/10/18 08:29:39;;;;;;;20.27;13.60;;;6.80;99.90;;;;;;5083497;28;20438;-61
2023/10/18 08:32:18;;;;;;;23.57;14.07;;;6.90;99.90;;;;;;5082415;28;20457;-62
2023/10/18 08:34:45;;;;;;;25.93;14.97;;;7.00;99.90;;;;;;5084455;28;20488;-62
2023/10/18 08:37:13;;;;;;;23.03;14.60;;;7.10;99.90;;;;;;5081269;28;20452;-62
2023/10/18 08:39:40;;;;;;;22.10;14.07;;;7.20;99.90;;;;;;5078866;28;20438;-61
2023/10/18 08:42:08;;;;;;;23.87;14.13;;;7.20;99.90;;;;;;5080998;28;20456;-61
2023/10/18 08:44:35;;;;;;;22.17;14.43;;;7.30;99.90;;;;;;5085832;28;20473;-62
2023/10/18 08:49:34;;;;;;;20.70;14.30;;;7.50;99.90;;;;;;5081425;28;20459;-61
2023/10/18 08:52:06;;;;;;;21.03;13.43;;;7.50;99.90;;;;;;5083019;28;20428;-61
2023/10/18 08:54:36;;;;;;;25.57;13.83;;;7.60;99.90;;;;;;5080867;28;20421;-61
2023/10/18 08:57:08;;;;;;;22.30;13.80;;;7.70;99.90;;;;;;5079423;28;20872;-62
2023/10/18 08:59:48;;;;;;;19.33;13.20;;;7.70;99.90;;;;;;5080536;28;20416;-62
2023/10/18 09:02:18;;;;;;;21.83;13.70;;;7.70;99.90;;;;;;5083835;28;21118;-62
2023/10/18 09:04:51;;;;;;;21.40;13.47;;;7.80;99.90;;;;;;5085262;28;20482;-62
2023/10/18 09:10:13;;;;;;;20.43;12.97;;;7.90;99.90;;;;;;5084079;28;20440;-62
2023/10/18 09:17:54;;;;;;;22.77;13.17;;;8.10;99.90;;;;;;5085056;28;20575;-62
2023/10/18 09:20:27;;;;;;;18.97;13.00;;;8.10;99.90;;;;;;5080650;28;20811;-62
2023/10/18 09:23:03;;;;;;;16.23;11.50;;;8.20;99.90;;;;;;5084296;28;20567;-61
2023/10/18 09:25:47;;;;;;;15.73;11.40;;;8.20;99.90;;;;;;5083697;28;20514;-61
2023/10/18 09:28:25;;;;;;;18.93;13.03;;;8.30;99.90;;;;;;5088667;28;20519;-61
2023/10/18 09:31:16;;;;;;;19.83;11.30;;;8.30;99.90;;;;;;5080170;28;20431;-61
2023/10/18 09:34:07;;;;;;;19.20;11.97;;;8.30;99.90;;;;;;5085801;28;20557;-62
2023/10/18 09:36:38;;;;;;;21.63;12.50;;;8.40;99.90;;;;;;5081379;28;20519;-61
2023/10/18 09:39:09;;;;;;;22.03;12.97;;;8.50;99.90;;;;;;5080360;28;20431;-62
2023/10/18 09:41:37;;;;;;;16.00;11.07;;;8.50;99.90;;;;;;5076020;28;20440;-61
2023/10/18 09:44:03;;;;;;;19.77;11.37;;;8.60;99.90;;;;;;5086005;28;20439;-62
2023/10/18 09:46:31;;;;;;;16.13;11.13;;;8.70;99.90;;;;;;5077406;28;20486;-62
2023/10/18 09:48:58;;;;;;;18.43;11.27;;;8.70;99.90;;;;;;5074494;28;20432;-62
2023/10/18 09:51:24;;;;;;;15.33;10.90;;;8.80;99.90;;;;;;5086287;28;20424;-61
2023/10/18 09:53:51;;;;;;;16.07;10.63;;;8.90;99.90;;;;;;5084585;28;20442;-62
2023/10/18 09:56:24;;;;;;;18.33;10.23;;;8.90;99.90;;;;;;5073431;28;20428;-61
2023/10/18 09:58:51;;;;;;;14.70;10.23;;;9.00;99.90;;;;;;5083675;28;20436;-62
2023/10/18 10:01:28;;;;;;;13.00;9.60;;;9.00;99.90;;;;;;5085609;28;20435;-62
2023/10/18 10:03:56;;;;;;;13.70;10.10;;;9.00;99.90;;;;;;5078711;28;20434;-62
2023/10/18 10:06:26;;;;;;;13.80;9.93;;;9.10;99.90;;;;;;5082674;28;20521;-61
2023/10/18 10:09:12;;;;;;;14.87;10.80;;;9.10;99.90;;;;;;5084544;28;20490;-61
2023/10/18 10:11:43;;;;;;;14.77;10.17;;;9.20;99.90;;;;;;5080266;28;20432;-62
2023/10/18 10:14:17;;;;;;;14.97;11.00;;;9.30;99.90;;;;;;5079122;28;20437;-61
2023/10/18 10:17:07;;;;;;;16.07;9.40;;;9.40;99.90;;;;;;5088228;28;20481;-62
2023/10/18 10:19:40;;;;;;;12.53;8.77;;;9.50;99.90;;;;;;5087346;28;20411;-61
2023/10/18 10:22:06;;;;;;;16.90;9.90;;;9.70;99.90;;;;;;5086107;28;20459;-61
2023/10/18 10:24:43;;;;;;;13.73;10.10;;;9.70;99.90;;;;;;5082899;28;20423;-61
2023/10/18 10:30:25;;;;;;;14.30;9.50;;;10.00;99.90;;;;;;5087371;28;20487;-62
2023/10/18 10:32:55;;;;;;;12.23;9.13;;;10.30;99.90;;;;;;5081702;28;20507;-62
2023/10/18 10:35:26;;;;;;;14.07;9.10;;;10.60;99.90;;;;;;5090220;28;20451;-62
2023/10/18 10:38:13;;;;;;;19.70;9.80;;;10.80;99.90;;;;;;5087042;28;20509;-62
2023/10/18 10:40:43;;;;;;;13.93;9.60;;;10.80;99.90;;;;;;5089165;28;20981;-63
2023/10/18 10:43:09;;;;;;;15.70;8.60;;;10.90;99.90;;;;;;5090985;28;20863;-62
2023/10/18 10:50:43;;;;;;;11.43;8.30;;;10.90;99.90;;;;;;5088374;28;20427;-61
2023/10/18 10:53:28;;;;;;;12.97;8.33;;;10.90;99.90;;;;;;5090793;28;20432;-60
2023/10/18 10:55:54;;;;;;;13.27;10.07;;;10.90;99.90;;;;;;5081771;28;20448;-61
2023/10/18 10:58:22;;;;;;;12.40;8.90;;;10.90;99.90;;;;;;5091333;28;20442;-62
2023/10/18 11:01:06;;;;;;;17.03;9.20;;;10.80;99.90;;;;;;5091039;28;20419;-62
2023/10/18 11:03:55;;;;;;;15.30;9.27;;;10.80;99.90;;;;;;5086220;28;20985;-63
2023/10/18 11:06:23;;;;;;;15.90;9.60;;;10.90;99.90;;;;;;5082598;28;20436;-61
2023/10/18 11:08:51;;;;;;;12.90;8.93;;;10.90;99.90;;;;;;5089170;28;20454;-61
2023/10/18 11:11:21;;;;;;;10.80;8.23;;;11.00;99.90;;;;;;5085581;28;20444;-62
2023/10/18 11:13:53;;;;;;;14.27;9.57;;;11.00;99.90;;;;;;5085409;28;20554;-61
2023/10/18 11:16:22;;;;;;;10.80;7.90;;;11.00;99.90;;;;;;5083091;28;20436;-61
2023/10/18 11:18:49;;;;;;;14.13;8.30;;;11.00;99.90;;;;;;5085681;28;20460;-61
2023/10/18 11:21:21;;;;;;;13.17;7.87;;;11.10;99.90;;;;;;5085735;28;21128;-63
2023/10/18 11:24:02;;;;;;;10.30;7.80;;;11.00;99.90;;;;;;5087308;28;20870;-61
2023/10/18 11:26:28;;;;;;;14.87;8.03;;;11.10;99.90;;;;;;5081163;28;20436;-61
2023/10/18 11:28:59;;;;;;;9.10;7.00;;;11.10;99.90;;;;;;5088945;28;20415;-61
2023/10/18 11:31:28;;;;;;;11.23;7.40;;;11.20;99.90;;;;;;5089472;28;20960;-62
2023/10/18 11:34:04;;;;;;;12.63;7.97;;;11.20;99.90;;;;;;5083504;28;20483;-61
2023/10/18 11:36:32;;;;;;;10.57;7.30;;;11.30;99.90;;;;;;5083081;28;20415;-61
2023/10/18 11:39:18;;;;;;;9.63;7.13;;;11.50;99.90;;;;;;5085465;28;20442;-62
2023/10/18 11:41:45;;;;;;;11.07;6.90;;;11.60;99.90;;;;;;5087223;28;20502;-61
2023/10/18 11:44:17;;;;;;;11.63;7.57;;;11.70;99.90;;;;;;5084843;28;20801;-61
2023/10/18 11:46:46;;;;;;;8.77;6.20;;;11.90;99.90;;;;;;5087308;28;20411;-61
2023/10/18 11:49:18;;;;;;;10.33;6.80;;;12.10;98.50;;;;;;5085167;28;20427;-62
2023/10/18 11:51:46;;;;;;;9.70;6.40;;;12.20;96.30;;;;;;5087865;28;20478;-62
2023/10/18 11:54:29;;;;;;;8.73;6.80;;;12.30;94.30;;;;;;5087116;28;20477;-61
2023/10/18 11:56:56;;;;;;;10.23;7.67;;;12.30;93.00;;;;;;5077746;28;20440;-62
2023/10/18 11:59:23;;;;;;;11.50;7.33;;;12.40;93.50;;;;;;5081525;28;20436;-61
2023/10/18 12:02:04;;;;;;;10.70;6.90;;;12.40;93.70;;;;;;5083495;28;21036;-61
2023/10/18 12:04:37;;;;;;;10.90;6.97;;;12.40;93.80;;;;;;5082968;28;20505;-61
2023/10/18 12:07:03;;;;;;;14.07;5.80;;;12.40;93.30;;;;;;5085521;28;20484;-61
2023/10/18 12:09:31;;;;;;;7.60;5.93;;;12.40;92.50;;;;;;5086020;28;20436;-61
2023/10/18 12:11:57;;;;;;;7.77;6.30;;;12.40;91.70;;;;;;5081990;28;21712;-62
2023/10/18 12:14:23;;;;;;;8.80;6.47;;;12.30;91.00;;;;;;5089330;28;20427;-62
2023/10/18 12:16:54;;;;;;;11.13;5.70;;;12.20;91.20;;;;;;5088591;28;20522;-62
2023/10/18 12:19:20;;;;;;;8.60;6.47;;;12.20;92.40;;;;;;5081929;28;20427;-61
2023/10/18 12:21:48;;;;;;;10.00;5.77;;;12.10;91.60;;;;;;5077555;28;20427;-61
2023/10/18 12:24:15;;;;;;;8.63;5.77;;;12.10;92.30;;;;;;5087875;28;20590;-61
2023/10/18 12:26:41;;;;;;;9.73;6.60;;;12.00;92.40;;;;;;5088377;28;20434;-61
2023/10/18 12:29:06;;;;;;;9.93;5.10;;;12.00;93.40;;;;;;5087409;28;20429;-62
2023/10/18 12:31:39;;;;;;;7.33;5.20;;;12.00;94.50;;;;;;5083859;28;20618;-61
2023/10/18 12:34:05;;;;;;;9.80;5.00;;;11.90;96.20;;;;;;5081984;28;20200;-62
2023/10/18 12:36:40;;;;;;;6.30;5.60;;;11.90;97.70;;;;;;5079917;28;20514;-61
2023/10/18 12:39:20;;;;;;;10.90;5.13;;;11.90;98.70;;;;;;5076015;28;20170;-62
2023/10/18 12:41:52;;;;;;;9.93;6.43;;;11.80;98.50;;;;;;5082627;28;20472;-63
2023/10/18 12:44:18;;;;;;;8.60;6.57;;;11.80;98.00;;;;;;5082234;28;20420;-62
2023/10/18 12:46:45;;;;;;;7.93;5.90;;;11.80;99.00;;;;;;5084629;28;20497;-61
2023/10/18 12:49:11;;;;;;;9.83;6.03;;;11.70;99.90;;;;;;5081665;28;20431;-62
2023/10/18 12:51:57;;;;;;;5.93;5.30;;;11.70;99.90;;;;;;5081298;28;20428;-61
2023/10/18 12:54:29;;;;;;;9.30;6.20;;;11.70;99.90;;;;;;5082179;28;20949;-62
2023/10/18 12:57:09;;;;;;;9.17;6.17;;;11.60;99.90;;;;;;5086778;28;20439;-62
2023/10/18 13:05:07;;;;;;;8.63;6.40;;;11.50;99.90;;;;;;5077837;28;20423;-61
2023/10/18 13:07:36;;;;;;;10.33;6.50;;;11.50;99.90;;;;;;5088661;28;20454;-61
2023/10/18 13:10:11;;;;;;;9.63;6.40;;;11.50;99.90;;;;;;5088018;28;20480;-62
2023/10/18 13:12:38;;;;;;;12.13;8.40;;;11.50;99.90;;;;;;5088411;28;20891;-61
2023/10/18 13:15:07;;;;;;;16.43;9.90;;;11.50;99.90;;;;;;5078707;28;20886;-61
2023/10/18 13:17:33;;;;;;;16.07;10.43;;;11.50;99.90;;;;;;5080105;28;20459;-61
2023/10/18 13:19:59;;;;;;;17.00;9.93;;;11.60;99.90;;;;;;5080209;28;20435;-61
2023/10/18 13:22:25;;;;;;;11.20;8.17;;;11.60;99.90;;;;;;5080111;28;20213;-61
2023/10/18 13:24:51;;;;;;;9.50;7.17;;;11.60;99.90;;;;;;5073686;28;20173;-62
2023/10/18 13:27:28;;;;;;;14.80;10.30;;;11.50;99.90;;;;;;5083030;28;20439;-61
2023/10/18 13:30:00;;;;;;;13.20;9.80;;;11.50;99.90;;;;;;5083851;28;20261;-62
2023/10/18 13:32:26;;;;;;;12.63;9.10;;;11.40;99.90;;;;;;5086110;28;20419;-61
2023/10/18 13:34:52;;;;;;;24.40;10.00;;;11.30;99.90;;;;;;5079509;28;20508;-61
2023/10/18 13:37:18;;;;;;;10.70;7.70;;;11.30;99.90;;;;;;5078633;28;20462;-62
2023/10/18 13:39:51;;;;;;;11.73;8.20;;;11.30;99.90;;;;;;5070466;28;20477;-62